Time;durP1;ratioP1;P1;durP2;ratioP2;P2;SDS_P1;SDS_P2;PMS_P1;PMS_P2;Temp;Humidity;BMP_temperature;BMP_pressure;BME280_temperature;BME280_humidity;BME280_pressure;Samples;Min_cycle;Max_cycle;Signal;HPM_P1;HPM_P2
2021/08/04 00:00:48;;;;;;;3.08;2.08;;;;;;;;;;5096432;28;20020;-60
2021/08/04 00:03:13;;;;;;;2.83;2.40;;;;;;;;;;5096493;28;20395;-61
2021/08/04 00:05:39;;;;;;;2.53;2.33;;;;;;;;;;5096458;28;20356;-61
2021/08/04 00:08:04;;;;;;;3.38;2.42;;;;;;;;;;5096513;28;20434;-61
2021/08/04 00:10:30;;;;;;;2.38;2.28;;;;;;;;;;5078135;28;20108;-61
2021/08/04 00:12:55;;;;;;;3.10;2.80;;;;;;;;;;5096160;28;20032;-62
2021/08/04 00:15:21;;;;;;;2.70;2.50;;;;;;;;;;5077972;28;20479;-62
2021/08/04 00:17:46;;;;;;;2.53;2.40;;;;;;;;;;5096004;28;20028;-62
2021/08/04 00:20:13;;;;;;;2.40;2.20;;;;;;;;;;5060902;28;20048;-62
2021/08/04 00:22:39;;;;;;;2.40;2.25;;;;;;;;;;5096050;28;20048;-61
2021/08/04 00:25:05;;;;;;;3.75;2.22;;;;;;;;;;5096139;28;20036;-61
2021/08/04 00:27:31;;;;;;;2.60;2.40;;;;;;;;;;5096246;28;20036;-61
2021/08/04 00:29:56;;;;;;;2.35;2.15;;;;;;;;;;5096017;28;20020;-61
2021/08/04 00:32:22;;;;;;;2.67;2.40;;;;;;;;;;5096030;28;20410;-61
2021/08/04 00:34:48;;;;;;;2.13;1.88;;;;;;;;;;5077720;28;20024;-61
2021/08/04 00:37:14;;;;;;;2.15;1.95;;;;;;;;;;5077865;28;20036;-61
2021/08/04 00:39:39;;;;;;;2.47;2.33;;;;;;;;;;5096123;28;20145;-61
2021/08/04 00:42:05;;;;;;;4.18;2.05;;;;;;;;;;5077536;28;20040;-61
2021/08/04 00:44:31;;;;;;;3.35;2.15;;;;;;;;;;5077622;28;20024;-61
2021/08/04 00:46:57;;;;;;;2.17;1.98;;;;;;;;;;5077332;28;20377;-61
2021/08/04 00:49:22;;;;;;;3.33;2.30;;;;;;;;;;5077446;28;20036;-61
2021/08/04 00:51:48;;;;;;;1.80;1.70;;;;;;;;;;5077563;28;20035;-61
2021/08/04 00:54:13;;;;;;;3.60;2.65;;;;;;;;;;5077534;28;20028;-62
2021/08/04 00:56:39;;;;;;;3.08;2.78;;;;;;;;;;5077373;28;20043;-62
2021/08/04 00:59:06;;;;;;;3.35;2.78;;;;;;;;;;5077318;28;20035;-61
2021/08/04 01:01:41;;;;;;;3.53;2.42;;;;;;;;;;5076392;28;20047;-61
2021/08/04 01:04:11;;;;;;;3.08;2.55;;;;;;;;;;5077032;28;20040;-62
2021/08/04 01:06:40;;;;;;;3.33;2.83;;;;;;;;;;5077147;28;20038;-61
2021/08/04 01:09:07;;;;;;;2.50;2.30;;;;;;;;;;5077039;28;20035;-61
2021/08/04 01:11:35;;;;;;;2.75;1.95;;;;;;;;;;5059907;28;20075;-61
2021/08/04 01:14:06;;;;;;;2.05;1.90;;;;;;;;;;5094979;28;20047;-61
2021/08/04 01:16:35;;;;;;;6.00;2.22;;;;;;;;;;5076909;28;20475;-60
2021/08/04 01:19:07;;;;;;;3.33;2.38;;;;;;;;;;5072855;28;20510;-61
2021/08/04 01:21:39;;;;;;;2.33;2.13;;;;;;;;;;5073465;28;20056;-60
2021/08/04 01:24:14;;;;;;;2.90;2.60;;;;;;;;;;5073599;28;20512;-61
2021/08/04 01:26:44;;;;;;;2.83;2.30;;;;;;;;;;5073237;28;20037;-61
2021/08/04 01:29:14;;;;;;;2.80;2.35;;;;;;;;;;5073234;28;20029;-61
2021/08/04 01:31:41;;;;;;;2.50;2.30;;;;;;;;;;5074494;28;20032;-61
2021/08/04 01:34:08;;;;;;;2.35;1.92;;;;;;;;;;5073161;28;20063;-61
2021/08/04 01:36:34;;;;;;;2.35;2.00;;;;;;;;;;5073493;28;20040;-61
2021/08/04 01:39:00;;;;;;;2.15;2.03;;;;;;;;;;5073103;28;20037;-61
2021/08/04 01:41:26;;;;;;;2.33;2.13;;;;;;;;;;5074678;28;20135;-61
2021/08/04 01:43:53;;;;;;;2.60;1.80;;;;;;;;;;5072964;28;20139;-61
2021/08/04 01:46:20;;;;;;;1.90;1.80;;;;;;;;;;5073194;28;20033;-61
2021/08/04 01:48:46;;;;;;;3.28;2.50;;;;;;;;;;5072889;28;20029;-61
2021/08/04 01:51:13;;;;;;;2.28;2.08;;;;;;;;;;5072912;28;20085;-61
2021/08/04 01:53:39;;;;;;;2.08;1.98;;;;;;;;;;5074155;28;20077;-60
2021/08/04 01:56:05;;;;;;;4.65;2.03;;;;;;;;;;5074184;28;20040;-61
2021/08/04 01:58:31;;;;;;;2.30;2.10;;;;;;;;;;5072738;28;20043;-61
2021/08/04 02:00:56;;;;;;;2.38;2.17;;;;;;;;;;5056074;28;20478;-62
2021/08/04 02:03:22;;;;;;;4.30;1.83;;;;;;;;;;5072552;28;20028;-62
2021/08/04 02:05:48;;;;;;;2.50;1.88;;;;;;;;;;5074057;28;20433;-61
2021/08/04 02:08:25;;;;;;;3.83;2.40;;;;;;;;;;5072217;28;20021;-61
2021/08/04 02:10:57;;;;;;;2.40;2.20;;;;;;;;;;5072454;28;20547;-61
2021/08/04 02:13:22;;;;;;;2.22;2.03;;;;;;;;;;5072539;28;20087;-61
2021/08/04 02:15:51;;;;;;;2.00;1.83;;;;;;;;;;5073780;28;20029;-61
2021/08/04 02:18:19;;;;;;;2.15;1.95;;;;;;;;;;5074125;28;20032;-62
2021/08/04 02:20:45;;;;;;;1.85;1.75;;;;;;;;;;5075329;28;20107;-61
2021/08/04 02:23:14;;;;;;;2.17;1.83;;;;;;;;;;5075641;28;20491;-62
2021/08/04 02:25:42;;;;;;;3.17;2.25;;;;;;;;;;5093775;28;20028;-61
2021/08/04 02:28:10;;;;;;;2.60;2.40;;;;;;;;;;5075600;28;20056;-61
2021/08/04 02:30:39;;;;;;;2.90;2.63;;;;;;;;;;5075536;28;20017;-62
2021/08/04 02:33:05;;;;;;;2.70;2.50;;;;;;;;;;5093635;28;20036;-62
2021/08/04 02:35:31;;;;;;;3.20;2.22;;;;;;;;;;5075608;28;20072;-62
2021/08/04 02:37:56;;;;;;;2.42;2.33;;;;;;;;;;5075495;28;20085;-62
2021/08/04 02:40:21;;;;;;;2.15;1.95;;;;;;;;;;5093574;28;20149;-62
2021/08/04 02:42:48;;;;;;;2.50;1.92;;;;;;;;;;5093718;28;20480;-63
2021/08/04 02:45:14;;;;;;;2.47;2.25;;;;;;;;;;5058805;28;20369;-61
2021/08/04 02:47:40;;;;;;;2.20;2.05;;;;;;;;;;5093448;28;20028;-61
2021/08/04 02:50:06;;;;;;;2.15;1.95;;;;;;;;;;5093428;28;20036;-61
2021/08/04 02:52:32;;;;;;;2.85;2.35;;;;;;;;;;5093702;28;20430;-61
2021/08/04 02:54:58;;;;;;;2.20;2.10;;;;;;;;;;5075508;28;20032;-61
2021/08/04 02:57:23;;;;;;;1.98;1.88;;;;;;;;;;5093599;28;20040;-61
2021/08/04 02:59:49;;;;;;;2.28;2.08;;;;;;;;;;5075437;28;20139;-62
2021/08/04 03:02:14;;;;;;;2.05;1.95;;;;;;;;;;5093047;28;20458;-62
2021/08/04 03:04:40;;;;;;;3.22;2.40;;;;;;;;;;5075491;28;20387;-61
2021/08/04 03:07:05;;;;;;;3.60;3.03;;;;;;;;;;5093370;28;20036;-61
2021/08/04 03:09:31;;;;;;;3.85;2.92;;;;;;;;;;5075472;28;20040;-62
2021/08/04 03:11:56;;;;;;;2.80;2.35;;;;;;;;;;5075337;28;20044;-62
2021/08/04 03:14:22;;;;;;;3.15;2.33;;;;;;;;;;5093355;28;20434;-62
2021/08/04 03:16:47;;;;;;;2.33;2.17;;;;;;;;;;5093240;28;20043;-62
2021/08/04 03:19:14;;;;;;;2.25;2.15;;;;;;;;;;5071486;28;20052;-62
2021/08/04 03:21:40;;;;;;;2.63;2.38;;;;;;;;;;5071653;28;20032;-62
2021/08/04 03:24:05;;;;;;;2.15;2.05;;;;;;;;;;5073535;28;20422;-62
2021/08/04 03:26:31;;;;;;;2.92;2.30;;;;;;;;;;5076765;28;20040;-61
2021/08/04 03:28:56;;;;;;;4.60;2.97;;;;;;;;;;5076721;28;20113;-61
2021/08/04 03:31:22;;;;;;;3.30;3.10;;;;;;;;;;5076820;28;20032;-60
2021/08/04 03:33:47;;;;;;;5.13;2.83;;;;;;;;;;5076941;28;20021;-60
2021/08/04 03:36:13;;;;;;;4.35;2.92;;;;;;;;;;5075495;28;20448;-60
2021/08/04 03:38:38;;;;;;;3.40;2.42;;;;;;;;;;5076787;28;20033;-60
2021/08/04 03:41:04;;;;;;;5.20;2.58;;;;;;;;;;5076469;28;20044;-61
2021/08/04 03:43:29;;;;;;;3.67;2.60;;;;;;;;;;5075444;28;20028;-61
2021/08/04 03:45:55;;;;;;;3.33;2.97;;;;;;;;;;5076608;28;20131;-61
2021/08/04 03:48:20;;;;;;;3.78;2.58;;;;;;;;;;5076654;28;20068;-60
2021/08/04 03:50:45;;;;;;;2.70;2.50;;;;;;;;;;5076626;28;20033;-61
2021/08/04 03:53:11;;;;;;;5.10;2.53;;;;;;;;;;5076454;28;20021;-60
2021/08/04 03:55:36;;;;;;;2.60;2.40;;;;;;;;;;5075126;28;20059;-61
2021/08/04 03:58:02;;;;;;;2.60;2.40;;;;;;;;;;5075572;28;20028;-60
2021/08/04 04:00:27;;;;;;;2.63;2.42;;;;;;;;;;5076245;28;20033;-60
2021/08/04 04:02:53;;;;;;;4.22;2.17;;;;;;;;;;5076222;28;20081;-61
2021/08/04 04:05:18;;;;;;;4.07;2.47;;;;;;;;;;5075977;28;20036;-61
2021/08/04 04:07:44;;;;;;;2.58;2.38;;;;;;;;;;5076110;28;20028;-61
2021/08/04 04:10:10;;;;;;;3.17;2.55;;;;;;;;;;5075828;28;20028;-61
2021/08/04 04:12:36;;;;;;;2.78;2.58;;;;;;;;;;5076236;28;20031;-61
2021/08/04 04:15:02;;;;;;;3.08;2.40;;;;;;;;;;5076016;28;20047;-61
2021/08/04 04:17:27;;;;;;;3.05;2.50;;;;;;;;;;5075993;28;20029;-61
2021/08/04 04:19:53;;;;;;;2.75;2.55;;;;;;;;;;5087287;28;20036;-61
2021/08/04 04:22:18;;;;;;;3.28;2.47;;;;;;;;;;5095949;28;20046;-61
2021/08/04 04:24:44;;;;;;;3.95;2.83;;;;;;;;;;5096101;28;20119;-61
2021/08/04 04:27:09;;;;;;;2.70;2.50;;;;;;;;;;5096124;28;20025;-60
2021/08/04 04:29:35;;;;;;;2.55;2.35;;;;;;;;;;5096046;28;20036;-61
2021/08/04 04:32:01;;;;;;;2.63;2.42;;;;;;;;;;5096006;28;20040;-61
2021/08/04 04:34:26;;;;;;;2.70;2.50;;;;;;;;;;5096120;28;20028;-60
2021/08/04 04:36:52;;;;;;;2.75;2.40;;;;;;;;;;5094562;28;20082;-60
2021/08/04 04:39:17;;;;;;;2.78;2.58;;;;;;;;;;5095852;28;20127;-60
2021/08/04 04:41:43;;;;;;;2.30;2.20;;;;;;;;;;5095608;28;20032;-61
2021/08/04 04:44:08;;;;;;;3.38;2.55;;;;;;;;;;5095479;28;20132;-60
2021/08/04 04:46:34;;;;;;;2.90;2.55;;;;;;;;;;5095880;28;20034;-61
2021/08/04 04:48:59;;;;;;;4.10;2.90;;;;;;;;;;5095849;28;20040;-61
2021/08/04 04:51:24;;;;;;;3.60;2.80;;;;;;;;;;5096061;28;20040;-61
2021/08/04 04:53:50;;;;;;;3.65;3.35;;;;;;;;;;5095554;28;20035;-61
2021/08/04 04:56:16;;;;;;;5.22;3.25;;;;;;;;;;5095414;28;20055;-61
2021/08/04 04:58:41;;;;;;;3.50;3.20;;;;;;;;;;5095535;28;20048;-61
2021/08/04 05:01:07;;;;;;;3.33;3.03;;;;;;;;;;5095072;28;20055;-60
2021/08/04 05:03:32;;;;;;;3.15;2.92;;;;;;;;;;5095358;28;20086;-60
2021/08/04 05:05:58;;;;;;;3.55;2.60;;;;;;;;;;5077291;28;20020;-61
2021/08/04 05:08:23;;;;;;;4.72;3.33;;;;;;;;;;5095072;28;20040;-61
2021/08/04 05:10:49;;;;;;;2.95;2.75;;;;;;;;;;5094941;28;20028;-61
2021/08/04 05:13:14;;;;;;;5.35;3.60;;;;;;;;;;5095250;28;20044;-61
2021/08/04 05:15:40;;;;;;;6.68;3.60;;;;;;;;;;5094952;28;20157;-60
2021/08/04 05:18:06;;;;;;;3.38;3.08;;;;;;;;;;5095085;28;20036;-60
2021/08/04 05:20:32;;;;;;;4.78;3.15;;;;;;;;;;5095016;28;20044;-60
2021/08/04 05:22:58;;;;;;;7.32;3.05;;;;;;;;;;5095043;28;20047;-61
2021/08/04 05:25:24;;;;;;;3.45;3.15;;;;;;;;;;5095277;28;20024;-61
2021/08/04 05:27:49;;;;;;;4.95;3.38;;;;;;;;;;5094865;28;20483;-60
2021/08/04 05:30:15;;;;;;;4.65;3.08;;;;;;;;;;5094924;28;20031;-61
2021/08/04 05:32:41;;;;;;;4.55;3.30;;;;;;;;;;5094534;28;20055;-60
2021/08/04 05:35:07;;;;;;;3.95;2.88;;;;;;;;;;5076577;28;20024;-61
2021/08/04 05:37:32;;;;;;;3.33;3.03;;;;;;;;;;5094752;28;20043;-61
2021/08/04 05:39:57;;;;;;;4.43;3.33;;;;;;;;;;5094482;28;20032;-61
2021/08/04 05:42:23;;;;;;;4.43;3.55;;;;;;;;;;5094357;28;20036;-61
2021/08/04 05:44:48;;;;;;;5.10;3.63;;;;;;;;;;5094045;28;20020;-61
2021/08/04 05:47:15;;;;;;;6.90;3.72;;;;;;;;;;5094367;28;20048;-62
2021/08/04 05:49:41;;;;;;;5.95;3.80;;;;;;;;;;5094468;28;20024;-61
2021/08/04 05:52:07;;;;;;;5.75;3.70;;;;;;;;;;5094143;28;20487;-61
2021/08/04 05:54:32;;;;;;;7.70;4.38;;;;;;;;;;5094393;28;20028;-61
2021/08/04 05:56:57;;;;;;;6.07;4.25;;;;;;;;;;5094189;28;20503;-61
2021/08/04 05:59:23;;;;;;;5.57;4.25;;;;;;;;;;5094129;28;20464;-61
2021/08/04 06:01:48;;;;;;;5.28;4.75;;;;;;;;;;5094088;28;20051;-61
2021/08/04 06:04:14;;;;;;;5.30;3.90;;;;;;;;;;5094127;28;20024;-62
2021/08/04 06:06:39;;;;;;;5.40;3.75;;;;;;;;;;5094011;28;20111;-61
2021/08/04 06:09:05;;;;;;;7.78;4.75;;;;;;;;;;5093969;28;20026;-61
2021/08/04 06:11:30;;;;;;;6.35;4.70;;;;;;;;;;5093712;28;20411;-61
2021/08/04 06:13:56;;;;;;;9.38;5.72;;;;;;;;;;5093894;28;20020;-61
2021/08/04 06:16:21;;;;;;;10.45;6.07;;;;;;;;;;5093891;28;20036;-61
2021/08/04 06:18:46;;;;;;;8.10;5.43;;;;;;;;;;5093707;28;20039;-61
2021/08/04 06:21:12;;;;;;;7.55;5.13;;;;;;;;;;5094095;28;20032;-61
2021/08/04 06:23:38;;;;;;;6.93;5.25;;;;;;;;;;5093962;28;20048;-61
2021/08/04 06:26:03;;;;;;;8.65;5.38;;;;;;;;;;5093833;28;20032;-61
2021/08/04 06:28:29;;;;;;;8.57;5.55;;;;;;;;;;5093731;28;20024;-61
2021/08/04 06:30:54;;;;;;;8.05;5.25;;;;;;;;;;5093739;28;20384;-61
2021/08/04 06:33:20;;;;;;;8.75;5.25;;;;;;;;;;5093927;28;20490;-61
2021/08/04 06:35:45;;;;;;;9.63;5.45;;;;;;;;;;5093613;28;20051;-63
2021/08/04 06:38:11;;;;;;;8.95;5.63;;;;;;;;;;5093526;28;20114;-62
2021/08/04 06:40:36;;;;;;;10.30;6.10;;;;;;;;;;5093785;28;20032;-63
2021/08/04 06:43:02;;;;;;;8.32;5.97;;;;;;;;;;5093429;28;20032;-63
2021/08/04 06:45:27;;;;;;;9.35;5.38;;;;;;;;;;5094048;28;20028;-62
2021/08/04 06:47:53;;;;;;;7.18;5.45;;;;;;;;;;5093309;28;20432;-63
2021/08/04 06:50:18;;;;;;;8.55;5.47;;;;;;;;;;5093276;28;20464;-62
2021/08/04 06:52:43;;;;;;;7.00;5.43;;;;;;;;;;5093506;28;20028;-62
2021/08/04 06:55:09;;;;;;;9.73;5.45;;;;;;;;;;5093526;28;20032;-62
2021/08/04 06:57:35;;;;;;;7.07;5.65;;;;;;;;;;5093281;28;20519;-60
2021/08/04 07:00:00;;;;;;;6.80;5.35;;;;;;;;;;5092517;28;20044;-60
2021/08/04 07:02:26;;;;;;;7.85;6.15;;;;;;;;;;5093254;28;20028;-61
2021/08/04 07:04:51;;;;;;;8.40;5.38;;;;;;;;;;5093102;28;20040;-62
2021/08/04 07:07:17;;;;;;;7.45;4.75;;;;;;;;;;5093202;28;20070;-62
2021/08/04 07:09:42;;;;;;;8.48;5.35;;;;;;;;;;5075049;28;20074;-62
2021/08/04 07:12:10;;;;;;;5.32;4.80;;;;;;;;;;5093524;28;20028;-62
2021/08/04 07:14:36;;;;;;;7.57;4.80;;;;;;;;;;5093394;28;20036;-62
2021/08/04 07:17:01;;;;;;;5.45;4.93;;;;;;;;;;5093387;28;20028;-62
2021/08/04 07:19:27;;;;;;;7.75;5.13;;;;;;;;;;5093123;28;20043;-62
2021/08/04 07:21:52;;;;;;;5.88;4.82;;;;;;;;;;5075148;28;20078;-62
2021/08/04 07:24:18;;;;;;;5.78;4.63;;;;;;;;;;5093465;28;20043;-63
2021/08/04 07:26:44;;;;;;;6.32;4.70;;;;;;;;;;5093018;28;20081;-63
2021/08/04 07:29:11;;;;;;;5.32;4.75;;;;;;;;;;5074773;28;20488;-63
2021/08/04 07:31:37;;;;;;;4.85;4.38;;;;;;;;;;5093241;28;20028;-63
2021/08/04 07:34:03;;;;;;;5.15;3.92;;;;;;;;;;5092792;28;20479;-63
2021/08/04 07:36:28;;;;;;;4.85;4.40;;;;;;;;;;5093201;28;20043;-63
2021/08/04 07:38:54;;;;;;;4.35;4.05;;;;;;;;;;5093182;28;20123;-63
2021/08/04 07:41:20;;;;;;;4.97;4.47;;;;;;;;;;5092950;28;20033;-63
2021/08/04 07:43:45;;;;;;;6.13;4.00;;;;;;;;;;5093131;28;20040;-63
2021/08/04 07:46:11;;;;;;;4.40;3.88;;;;;;;;;;5092905;28;20043;-63
2021/08/04 07:48:37;;;;;;;4.85;3.80;;;;;;;;;;5092892;28;20040;-61
2021/08/04 07:51:02;;;;;;;4.70;3.95;;;;;;;;;;5092673;28;20392;-60
2021/08/04 07:53:29;;;;;;;4.13;3.83;;;;;;;;;;5092781;28;20521;-59
2021/08/04 07:55:54;;;;;;;3.88;3.60;;;;;;;;;;5092649;28;20491;-59
2021/08/04 07:58:20;;;;;;;5.32;3.63;;;;;;;;;;5074432;28;20044;-59
2021/08/04 08:00:45;;;;;;;4.55;3.75;;;;;;;;;;5092995;28;20024;-59
2021/08/04 08:03:11;;;;;;;4.38;3.95;;;;;;;;;;5092631;28;20090;-59
2021/08/04 08:05:36;;;;;;;3.90;3.60;;;;;;;;;;5092733;28;20028;-59
2021/08/04 08:08:05;;;;;;;4.32;3.67;;;;;;;;;;5092711;28;20082;-59
2021/08/04 08:10:32;;;;;;;3.58;3.28;;;;;;;;;;5093783;28;20025;-59
2021/08/04 08:12:57;;;;;;;3.80;3.40;;;;;;;;;;5096360;28;20036;-60
2021/08/04 08:15:23;;;;;;;4.07;3.78;;;;;;;;;;5096589;28;20027;-59
2021/08/04 08:17:49;;;;;;;5.20;3.60;;;;;;;;;;5096137;28;20044;-60
2021/08/04 08:20:15;;;;;;;6.47;4.30;;;;;;;;;;5096158;28;20052;-60
2021/08/04 08:22:40;;;;;;;6.00;4.35;;;;;;;;;;5096252;28;20036;-60
2021/08/04 08:25:06;;;;;;;5.28;3.67;;;;;;;;;;5096214;28;20080;-60
2021/08/04 08:27:32;;;;;;;3.92;3.67;;;;;;;;;;5095989;28;20114;-60
2021/08/04 08:29:57;;;;;;;4.47;2.97;;;;;;;;;;5095886;28;20433;-61
2021/08/04 08:32:26;;;;;;;3.45;3.13;;;;;;;;;;5096113;28;20093;-60
2021/08/04 08:34:52;;;;;;;4.43;3.40;;;;;;;;;;5095974;28;20119;-60
2021/08/04 08:37:18;;;;;;;3.88;3.53;;;;;;;;;;5095641;28;20044;-60
2021/08/04 08:39:43;;;;;;;4.18;3.80;;;;;;;;;;5095680;28;20034;-60
2021/08/04 08:42:09;;;;;;;3.42;3.13;;;;;;;;;;5095648;28;20047;-61
2021/08/04 08:44:34;;;;;;;5.43;4.05;;;;;;;;;;5095535;28;20028;-60
2021/08/04 08:47:04;;;;;;;3.95;3.22;;;;;;;;;;5095549;28;20067;-60
2021/08/04 08:49:30;;;;;;;3.42;3.20;;;;;;;;;;5095834;28;20042;-60
2021/08/04 08:51:56;;;;;;;3.40;3.10;;;;;;;;;;5077408;28;20107;-61
2021/08/04 08:54:22;;;;;;;4.32;3.45;;;;;;;;;;5095273;28;20048;-60
2021/08/04 08:56:47;;;;;;;4.30;3.13;;;;;;;;;;5095517;28;20039;-60
2021/08/04 08:59:15;;;;;;;3.42;3.10;;;;;;;;;;5095499;28;20102;-60
2021/08/04 09:01:40;;;;;;;3.40;2.92;;;;;;;;;;5095565;28;20040;-60
2021/08/04 09:04:15;;;;;;;3.30;3.00;;;;;;;;;;5095383;28;20399;-60
2021/08/04 09:06:50;;;;;;;3.10;2.90;;;;;;;;;;5095547;28;20085;-60
2021/08/04 09:09:19;;;;;;;3.53;2.85;;;;;;;;;;5095302;28;20046;-60
2021/08/04 09:11:46;;;;;;;5.22;2.83;;;;;;;;;;5095369;28;20102;-61
2021/08/04 09:14:12;;;;;;;3.75;2.72;;;;;;;;;;5095481;28;20089;-60
2021/08/04 09:16:39;;;;;;;4.18;2.90;;;;;;;;;;5095312;28;20036;-60
2021/08/04 09:19:17;;;;;;;3.88;3.35;;;;;;;;;;5094578;28;20040;-60
2021/08/04 09:21:43;;;;;;;4.03;2.53;;;;;;;;;;5094430;28;20426;-60
2021/08/04 09:24:08;;;;;;;4.13;3.22;;;;;;;;;;5094470;28;20032;-60
2021/08/04 09:26:38;;;;;;;3.72;2.92;;;;;;;;;;5094828;28;20048;-60
2021/08/04 09:29:05;;;;;;;3.42;3.13;;;;;;;;;;5094845;28;20032;-60
2021/08/04 09:31:39;;;;;;;3.83;3.42;;;;;;;;;;5076626;28;20067;-60
2021/08/04 09:34:25;;;;;;;4.80;3.22;;;;;;;;;;5076839;28;20051;-60
2021/08/04 09:37:02;;;;;;;4.95;3.30;;;;;;;;;;5094738;28;20112;-60
2021/08/04 09:39:29;;;;;;;3.90;2.95;;;;;;;;;;5094470;28;20051;-60
2021/08/04 09:41:54;;;;;;;3.53;2.65;;;;;;;;;;5094545;28;20039;-60
2021/08/04 09:44:20;;;;;;;3.08;2.85;;;;;;;;;;5094667;28;20032;-60
2021/08/04 09:46:45;;;;;;;3.00;2.80;;;;;;;;;;5094579;28;20349;-60
2021/08/04 09:49:15;;;;;;;3.55;2.50;;;;;;;;;;5094398;28;20182;-60
2021/08/04 09:51:41;;;;;;;2.85;2.65;;;;;;;;;;5094497;28;20051;-60
2021/08/04 09:54:07;;;;;;;3.03;2.55;;;;;;;;;;5094518;28;20040;-60
2021/08/04 09:56:33;;;;;;;2.65;2.45;;;;;;;;;;5094309;28;20035;-60
2021/08/04 09:59:07;;;;;;;1.73;1.63;;;;;;;;;;5094064;28;20024;-60
2021/08/04 10:01:39;;;;;;;3.75;2.00;;;;;;;;;;5094271;28;20028;-60
2021/08/04 10:04:06;;;;;;;2.38;2.17;;;;;;;;;;5094218;28;20482;-60
2021/08/04 10:06:32;;;;;;;2.10;1.90;;;;;;;;;;5094414;28;20046;-60
2021/08/04 10:09:00;;;;;;;2.17;2.08;;;;;;;;;;5094084;28;20119;-60
2021/08/04 10:11:25;;;;;;;2.22;2.00;;;;;;;;;;5094066;28;20114;-60
2021/08/04 10:13:53;;;;;;;3.08;2.63;;;;;;;;;;5094173;28;20064;-60
2021/08/04 10:16:18;;;;;;;2.53;2.33;;;;;;;;;;5093650;28;20499;-60
2021/08/04 10:18:44;;;;;;;2.30;2.10;;;;;;;;;;5093932;28;20047;-60
2021/08/04 10:21:13;;;;;;;2.53;2.13;;;;;;;;;;5093711;28;20071;-60
2021/08/04 10:23:39;;;;;;;4.38;2.53;;;;;;;;;;5093869;28;20128;-60
2021/08/04 10:26:05;;;;;;;3.25;2.80;;;;;;;;;;5094026;28;20074;-60
2021/08/04 10:28:31;;;;;;;2.40;2.20;;;;;;;;;;5093867;28;20503;-60
2021/08/04 10:30:57;;;;;;;2.20;1.83;;;;;;;;;;5093761;28;20059;-60
2021/08/04 10:33:23;;;;;;;2.17;1.98;;;;;;;;;;5093350;28;20024;-60
2021/08/04 10:35:52;;;;;;;1.98;1.88;;;;;;;;;;5088547;28;20471;-60
2021/08/04 10:38:19;;;;;;;2.00;1.90;;;;;;;;;;5093496;28;20463;-60
2021/08/04 10:40:45;;;;;;;2.17;2.08;;;;;;;;;;5093565;28;20082;-60
2021/08/04 10:43:31;;;;;;;2.35;1.60;;;;;;;;;;5093361;28;20048;-60
2021/08/04 10:45:56;;;;;;;1.73;1.38;;;;;;;;;;5093717;28;20111;-60
2021/08/04 10:48:23;;;;;;;1.90;1.52;;;;;;;;;;5094027;28;20107;-60
2021/08/04 10:51:09;;;;;;;1.75;1.65;;;;;;;;;;5093614;28;20040;-60
2021/08/04 10:53:34;;;;;;;1.48;1.38;;;;;;;;;;5093150;28;20048;-60
2021/08/04 10:56:00;;;;;;;1.80;1.70;;;;;;;;;;5093378;28;20039;-60
2021/08/04 10:58:26;;;;;;;1.52;1.42;;;;;;;;;;5093691;28;20122;-60
2021/08/04 11:00:52;;;;;;;1.85;1.75;;;;;;;;;;5093382;28;20016;-60
2021/08/04 11:03:44;;;;;;;1.60;1.50;;;;;;;;;;5093180;28;20032;-60
2021/08/04 11:06:11;;;;;;;2.35;1.65;;;;;;;;;;5090527;28;20043;-60
2021/08/04 11:08:36;;;;;;;2.38;1.92;;;;;;;;;;5093539;28;20042;-60
2021/08/04 11:11:02;;;;;;;1.75;1.65;;;;;;;;;;5093202;28;20539;-61
2021/08/04 11:13:45;;;;;;;2.33;2.10;;;;;;;;;;5093135;28;20024;-61
2021/08/04 11:16:29;;;;;;;2.05;1.85;;;;;;;;;;5093483;28;20101;-61
2021/08/04 11:19:03;;;;;;;3.50;1.85;;;;;;;;;;5092938;28;20081;-60
2021/08/04 11:21:29;;;;;;;1.98;1.75;;;;;;;;;;5093300;28;20391;-60
2021/08/04 11:23:55;;;;;;;2.95;2.30;;;;;;;;;;5093376;28;20490;-61
2021/08/04 11:26:32;;;;;;;2.55;2.00;;;;;;;;;;5093410;28;20072;-60
2021/08/04 11:28:58;;;;;;;2.53;2.33;;;;;;;;;;5093336;28;20036;-61
2021/08/04 11:31:24;;;;;;;2.50;2.30;;;;;;;;;;5093375;28;20047;-60
2021/08/04 11:33:50;;;;;;;2.90;2.35;;;;;;;;;;5093462;28;20123;-60
2021/08/04 11:36:26;;;;;;;2.25;2.15;;;;;;;;;;5093083;28;20544;-60
2021/08/04 11:39:10;;;;;;;3.10;2.33;;;;;;;;;;5075003;28;20093;-60
2021/08/04 11:41:42;;;;;;;2.30;2.03;;;;;;;;;;5093205;28;20124;-61
2021/08/04 11:44:09;;;;;;;3.15;2.10;;;;;;;;;;5092599;28;20491;-60
2021/08/04 11:46:42;;;;;;;2.40;2.20;;;;;;;;;;5096042;28;20035;-60
2021/08/04 11:49:08;;;;;;;3.90;2.65;;;;;;;;;;5096801;28;20506;-66
2021/08/04 11:51:37;;;;;;;3.28;2.60;;;;;;;;;;5096868;28;20380;-60
2021/08/04 11:54:02;;;;;;;2.47;1.80;;;;;;;;;;5096925;28;20036;-60
2021/08/04 11:56:28;;;;;;;2.88;1.98;;;;;;;;;;5095587;28;20488;-60
2021/08/04 11:58:58;;;;;;;2.38;1.80;;;;;;;;;;5094841;28;20051;-60
2021/08/04 12:01:23;;;;;;;2.30;2.10;;;;;;;;;;5077426;28;20028;-61
2021/08/04 12:10:59;;;;;;;2.45;2.33;;;;;;;;;;5096983;28;20433;-61
2021/08/04 12:17:00;;;;;;;2.45;2.20;;;;;;;;;;5096622;28;20051;-61
2021/08/04 12:26:26;;;;;;;3.65;1.98;;;;;;;;;;5096427;28;20039;-60
2021/08/04 12:32:29;;;;;;;2.45;2.10;;;;;;;;;;5096302;28;20514;-61
2021/08/04 12:49:28;;;;;;;2.45;2.05;;;;;;;;;;5096253;28;20086;-61
2021/08/04 12:55:28;;;;;;;2.65;2.13;;;;;;;;;;5096129;28;20047;-61
2021/08/04 13:01:31;;;;;;;1.77;1.67;;;;;;;;;;5095931;28;20043;-61
2021/08/04 13:07:41;;;;;;;1.90;1.80;;;;;;;;;;5095927;28;20058;-61
2021/08/04 18:33:53;;;;;;;13.10;6.47;;;;;;;;;;5097148;28;20119;-61
2021/08/04 18:36:19;;;;;;;11.98;5.43;;;;;;;;;;5114182;28;20505;-61
2021/08/04 18:38:44;;;;;;;10.55;5.13;;;;;;;;;;5095928;28;20023;-61
2021/08/04 18:41:10;;;;;;;7.80;4.63;;;;;;;;;;5114088;28;20429;-61
2021/08/04 18:43:36;;;;;;;9.90;4.20;;;;;;;;;;5113882;28;20032;-61
2021/08/04 18:46:03;;;;;;;3.63;3.42;;;;;;;;;;5113783;28;20128;-61
2021/08/04 18:48:31;;;;;;;2.90;2.58;;;;;;;;;;5113956;28;20016;-61
2021/08/04 18:50:58;;;;;;;8.63;5.10;;;;;;;;;;5113929;28;20035;-61
2021/08/04 18:53:24;;;;;;;13.77;7.32;;;;;;;;;;5113674;28;20031;-61
2021/08/04 18:55:50;;;;;;;15.50;8.25;;;;;;;;;;5112871;28;20050;-61
2021/08/04 18:58:16;;;;;;;9.15;7.38;;;;;;;;;;5113707;28;20035;-61
2021/08/04 19:00:43;;;;;;;6.60;4.93;;;;;;;;;;5113836;28;20372;-61
2021/08/04 19:03:08;;;;;;;6.43;3.40;;;;;;;;;;5113778;28;20111;-61
2021/08/04 19:05:34;;;;;;;3.25;3.00;;;;;;;;;;5113769;28;20564;-61
2021/08/04 19:08:00;;;;;;;3.67;2.88;;;;;;;;;;5113764;28;20468;-60
2021/08/04 19:10:27;;;;;;;4.05;3.08;;;;;;;;;;5112939;28;20031;-61
2021/08/04 19:12:53;;;;;;;3.33;3.03;;;;;;;;;;5106085;28;20019;-61
2021/08/04 19:15:20;;;;;;;11.85;3.50;;;;;;;;;;5110195;28;20112;-61
2021/08/04 19:17:46;;;;;;;7.45;3.28;;;;;;;;;;5110139;28;20031;-61
2021/08/04 19:20:13;;;;;;;4.70;3.40;;;;;;;;;;5110195;28;20071;-61
2021/08/04 19:22:41;;;;;;;4.65;3.22;;;;;;;;;;5110103;28;20031;-61
2021/08/04 19:25:16;;;;;;;3.75;3.45;;;;;;;;;;5110282;28;20535;-61
2021/08/04 19:27:42;;;;;;;4.57;3.10;;;;;;;;;;5110250;28;20052;-61
2021/08/04 19:30:08;;;;;;;3.78;3.30;;;;;;;;;;5110228;28;20027;-61
2021/08/04 19:32:35;;;;;;;4.22;3.67;;;;;;;;;;5109755;28;20047;-61
2021/08/04 19:35:00;;;;;;;4.53;3.78;;;;;;;;;;5110672;28;20051;-61
2021/08/04 19:37:26;;;;;;;4.22;3.58;;;;;;;;;;5110187;28;20391;-61
2021/08/04 19:39:51;;;;;;;3.83;3.50;;;;;;;;;;5110335;28;20441;-61
2021/08/04 19:42:17;;;;;;;3.80;3.50;;;;;;;;;;5110157;28;20027;-61
2021/08/04 19:44:42;;;;;;;3.40;3.10;;;;;;;;;;5110370;28;20067;-61
2021/08/04 19:47:08;;;;;;;5.55;3.40;;;;;;;;;;5110295;28;20035;-60
2021/08/04 19:49:33;;;;;;;4.25;3.80;;;;;;;;;;5091809;28;20036;-61
2021/08/04 19:51:59;;;;;;;3.78;3.47;;;;;;;;;;5109925;28;20023;-60
2021/08/04 19:54:24;;;;;;;8.63;5.65;;;;;;;;;;5110097;28;20417;-60
2021/08/04 19:56:50;;;;;;;11.15;7.30;;;;;;;;;;5110224;28;20042;-61
2021/08/04 19:59:15;;;;;;;13.07;7.55;;;;;;;;;;5110178;28;20058;-61
2021/08/04 20:01:41;;;;;;;23.23;12.65;;;;;;;;;;5109852;28;20039;-61
2021/08/04 20:04:09;;;;;;;70.93;30.65;;;;;;;;;;5109823;28;20139;-60
2021/08/04 20:06:35;;;;;;;18.15;9.88;;;;;;;;;;5111256;28;20026;-60
2021/08/04 20:09:00;;;;;;;9.68;5.70;;;;;;;;;;5114064;28;20371;-60
2021/08/04 20:11:25;;;;;;;7.65;4.70;;;;;;;;;;5113439;28;20517;-61
2021/08/04 20:13:51;;;;;;;5.90;4.85;;;;;;;;;;5113719;28;20499;-60
2021/08/04 20:16:16;;;;;;;5.97;4.47;;;;;;;;;;5113701;28;20027;-61
2021/08/04 20:18:42;;;;;;;5.07;4.00;;;;;;;;;;5113487;28;20041;-61
2021/08/04 20:21:08;;;;;;;4.20;3.90;;;;;;;;;;5113388;28;20027;-61
2021/08/04 20:23:33;;;;;;;4.40;4.00;;;;;;;;;;5111858;28;20544;-61
2021/08/04 20:25:59;;;;;;;5.03;4.15;;;;;;;;;;5112146;28;20039;-61
2021/08/04 20:28:24;;;;;;;6.55;4.30;;;;;;;;;;5112655;28;20430;-60
2021/08/04 20:30:50;;;;;;;5.40;4.57;;;;;;;;;;5113212;28;20053;-60
2021/08/04 20:33:16;;;;;;;7.20;4.07;;;;;;;;;;5113000;28;20047;-60
2021/08/04 20:35:41;;;;;;;6.45;3.80;;;;;;;;;;5113303;28;20510;-61
2021/08/04 20:38:09;;;;;;;3.83;3.53;;;;;;;;;;5113454;28;20074;-60
2021/08/04 20:40:35;;;;;;;4.15;3.75;;;;;;;;;;5112918;28;20047;-60
2021/08/04 20:43:01;;;;;;;9.80;5.43;;;;;;;;;;5112274;28;20048;-61
2021/08/04 20:45:26;;;;;;;9.43;6.30;;;;;;;;;;5111779;28;20732;-62
2021/08/04 20:47:52;;;;;;;8.00;5.57;;;;;;;;;;5111432;28;20108;-61
2021/08/04 20:50:17;;;;;;;7.32;5.07;;;;;;;;;;5111654;28;20135;-61